CEB754 VVTS-RPLL
Flight info
| Callsign | CEB754 |
|---|---|
| Flight time | 2h 8m |
| Altitude | 33000 |
| Route | KADUM2D PTH N500 PANDI/N0461F370 M765 REKEL DCT LUBAN LUBAN5R |
| Aircraft | A21N/M-SDE3FGHIRWY/LB1 |
Departure
| Time | 2026-05-06 14:33 |
|---|---|
| Airport | Tan Son Nhat International Airport (VVTS) |
Arrival
| Time | 2026-05-06 16:41 |
|---|---|
| Airport | Ninoy Aquino International Airport (RPLL) |
| Time | Latitude | Longitude | Altitude | Speed | Heading |
|---|---|---|---|---|---|
| 2026-05-06 14:08 | 10.81852 | 106.66640 | 42 ft | 0 kts | 159° |
| 2026-05-06 14:23 | 10.81856 | 106.66638 | 42 ft | 2 kts | 159° |
| 2026-05-06 14:24 | 10.81870 | 106.66633 | 42 ft | 2 kts | 159° |
| 2026-05-06 14:24 | 10.81883 | 106.66627 | 42 ft | 2 kts | 159° |
| 2026-05-06 14:24 | 10.81897 | 106.66622 | 42 ft | 2 kts | 159° |
| 2026-05-06 14:24 | 10.81906 | 106.66618 | 42 ft | 1 kts | 159° |
| 2026-05-06 14:25 | 10.81920 | 106.66612 | 42 ft | 2 kts | 136° |
| 2026-05-06 14:25 | 10.81929 | 106.66599 | 42 ft | 2 kts | 119° |
| 2026-05-06 14:25 | 10.81935 | 106.66585 | 42 ft | 2 kts | 100° |
| 2026-05-06 14:25 | 10.81935 | 106.66569 | 42 ft | 2 kts | 81° |
| 2026-05-06 14:26 | 10.81933 | 106.66560 | 42 ft | 1 kts | 70° |
| 2026-05-06 14:26 | 10.81931 | 106.66555 | 42 ft | 0 kts | 69° |
| 2026-05-06 14:29 | 10.81931 | 106.66557 | 42 ft | 1 kts | 68° |
| 2026-05-06 14:29 | 10.81939 | 106.66577 | 42 ft | 5 kts | 69° |
| 2026-05-06 14:29 | 10.81960 | 106.66636 | 42 ft | 11 kts | 69° |
| 2026-05-06 14:30 | 10.81996 | 106.66730 | 42 ft | 16 kts | 69° |
| 2026-05-06 14:30 | 10.82035 | 106.66833 | 42 ft | 12 kts | 65° |
| 2026-05-06 14:30 | 10.82090 | 106.66909 | 42 ft | 14 kts | 40° |
| 2026-05-06 14:30 | 10.82163 | 106.66971 | 42 ft | 10 kts | 37° |
| 2026-05-06 14:31 | 10.82207 | 106.67004 | 42 ft | 8 kts | 33° |
| 2026-05-06 14:31 | 10.82266 | 106.67005 | 42 ft | 9 kts | 340° |
| 2026-05-06 14:31 | 10.82326 | 106.66965 | 42 ft | 12 kts | 301° |
| 2026-05-06 14:31 | 10.82343 | 106.66880 | 42 ft | 9 kts | 253° |
| 2026-05-06 14:32 | 10.82341 | 106.66875 | 42 ft | 0 kts | 252° |
| 2026-05-06 14:32 | 10.82314 | 106.66796 | 42 ft | 42 kts | 250° |
| 2026-05-06 14:32 | 10.82097 | 106.66221 | 42 ft | 129 kts | 249° |
| 2026-05-06 14:32 | 10.81690 | 106.65141 | 64 ft | 196 kts | 249° |
| 2026-05-06 14:33 | 10.81175 | 106.63755 | 692 ft | 217 kts | 249° |
| 2026-05-06 14:33 | 10.80633 | 106.62382 | 1998 ft | 207 kts | 248° |
| 2026-05-06 14:33 | 10.80112 | 106.61086 | 2847 ft | 202 kts | 249° |
| 2026-05-06 14:33 | 10.79574 | 106.59723 | 3266 ft | 218 kts | 249° |
| 2026-05-06 14:34 | 10.78999 | 106.58241 | 3668 ft | 235 kts | 249° |
| 2026-05-06 14:34 | 10.78411 | 106.56628 | 4068 ft | 254 kts | 257° |
| 2026-05-06 14:34 | 10.78386 | 106.54802 | 4618 ft | 264 kts | 287° |
| 2026-05-06 14:34 | 10.79210 | 106.53175 | 5385 ft | 263 kts | 314° |
| 2026-05-06 14:35 | 10.80687 | 106.52080 | 6111 ft | 263 kts | 338° |
| 2026-05-06 14:35 | 10.82384 | 106.51421 | 6763 ft | 269 kts | 342° |
| 2026-05-06 14:35 | 10.83575 | 106.50995 | 7088 ft | 278 kts | 342° |
| 2026-05-06 14:35 | 10.85403 | 106.50330 | 7766 ft | 283 kts | 342° |
| 2026-05-06 14:36 | 10.87881 | 106.49397 | 8718 ft | 287 kts | 342° |
| 2026-05-06 14:36 | 10.89832 | 106.48955 | 9367 ft | 287 kts | 3° |
| 2026-05-06 14:36 | 10.91771 | 106.49391 | 10014 ft | 286 kts | 28° |
| 2026-05-06 14:36 | 10.93326 | 106.50627 | 10503 ft | 293 kts | 52° |
| 2026-05-06 14:37 | 10.94233 | 106.52530 | 10751 ft | 310 kts | 78° |
| 2026-05-06 14:37 | 10.94347 | 106.54765 | 11048 ft | 326 kts | 90° |
| 2026-05-06 14:37 | 10.94308 | 106.57109 | 11321 ft | 341 kts | 90° |
| 2026-05-06 14:37 | 10.94269 | 106.59566 | 11589 ft | 356 kts | 90° |
| 2026-05-06 14:38 | 10.94236 | 106.62133 | 11854 ft | 371 kts | 90° |
| 2026-05-06 14:38 | 10.94206 | 106.64822 | 12272 ft | 380 kts | 90° |
| 2026-05-06 14:38 | 10.94180 | 106.67519 | 12889 ft | 384 kts | 90° |
| 2026-05-06 14:38 | 10.94155 | 106.70235 | 13516 ft | 387 kts | 90° |
| 2026-05-06 14:39 | 10.94131 | 106.72973 | 14116 ft | 392 kts | 90° |
| 2026-05-06 14:39 | 10.94108 | 106.75745 | 14741 ft | 395 kts | 90° |
| 2026-05-06 14:39 | 10.94084 | 106.78552 | 15384 ft | 398 kts | 90° |
| 2026-05-06 14:39 | 10.94061 | 106.81372 | 16027 ft | 402 kts | 90° |
| 2026-05-06 14:40 | 10.94037 | 106.84214 | 16649 ft | 405 kts | 90° |
| 2026-05-06 14:40 | 10.94013 | 106.87087 | 17211 ft | 409 kts | 90° |
| 2026-05-06 14:40 | 10.93988 | 106.89977 | 17792 ft | 413 kts | 90° |
| 2026-05-06 14:40 | 10.93963 | 106.92902 | 18382 ft | 416 kts | 91° |
| 2026-05-06 14:41 | 10.93937 | 106.95846 | 18958 ft | 419 kts | 91° |
| 2026-05-06 14:41 | 10.93910 | 106.98821 | 19533 ft | 422 kts | 91° |
| 2026-05-06 14:41 | 10.93884 | 107.01800 | 20092 ft | 425 kts | 91° |
| 2026-05-06 14:41 | 10.93856 | 107.04843 | 20644 ft | 428 kts | 91° |
| 2026-05-06 14:42 | 10.93829 | 107.07876 | 21175 ft | 431 kts | 91° |
| 2026-05-06 14:42 | 10.93801 | 107.10889 | 21638 ft | 434 kts | 91° |
| 2026-05-06 14:42 | 10.93773 | 107.13966 | 22075 ft | 438 kts | 91° |
| 2026-05-06 14:42 | 10.93743 | 107.17101 | 22547 ft | 441 kts | 91° |
| 2026-05-06 14:43 | 10.93714 | 107.20216 | 23015 ft | 443 kts | 91° |
| 2026-05-06 14:43 | 10.93684 | 107.23332 | 23466 ft | 446 kts | 91° |
| 2026-05-06 14:43 | 10.93653 | 107.26496 | 23907 ft | 448 kts | 91° |
| 2026-05-06 14:43 | 10.93620 | 107.29656 | 24293 ft | 452 kts | 90° |
| 2026-05-06 14:44 | 10.93589 | 107.32882 | 24691 ft | 455 kts | 90° |
| 2026-05-06 14:44 | 10.93558 | 107.36086 | 25094 ft | 457 kts | 90° |
| 2026-05-06 14:44 | 10.93526 | 107.39320 | 25489 ft | 460 kts | 90° |
| 2026-05-06 14:45 | 10.93461 | 107.45831 | 26543 ft | 458 kts | 90° |
| 2026-05-06 14:45 | 10.93429 | 107.49044 | 27070 ft | 456 kts | 90° |
| 2026-05-06 14:45 | 10.93396 | 107.52235 | 27538 ft | 455 kts | 90° |
| 2026-05-06 14:45 | 10.93363 | 107.55432 | 27979 ft | 454 kts | 90° |
| 2026-05-06 14:46 | 10.93330 | 107.58639 | 28410 ft | 453 kts | 90° |
| 2026-05-06 14:46 | 10.93296 | 107.61829 | 28829 ft | 452 kts | 90° |
| 2026-05-06 14:46 | 10.93262 | 107.65041 | 29237 ft | 451 kts | 91° |
| 2026-05-06 14:46 | 10.93228 | 107.68210 | 29629 ft | 450 kts | 91° |
| 2026-05-06 14:47 | 10.93194 | 107.71403 | 30010 ft | 450 kts | 91° |
| 2026-05-06 14:47 | 10.93160 | 107.74536 | 30370 ft | 449 kts | 91° |
| 2026-05-06 14:47 | 10.93126 | 107.77721 | 30749 ft | 447 kts | 91° |
| 2026-05-06 14:47 | 10.93094 | 107.80879 | 31143 ft | 446 kts | 91° |
| 2026-05-06 14:48 | 10.93060 | 107.84003 | 31423 ft | 446 kts | 92° |
| 2026-05-06 14:48 | 10.93029 | 107.87180 | 31548 ft | 451 kts | 92° |
| 2026-05-06 14:48 | 10.92993 | 107.90385 | 31673 ft | 455 kts | 92° |
| 2026-05-06 14:48 | 10.92955 | 107.93586 | 31869 ft | 457 kts | 92° |
| 2026-05-06 14:49 | 10.92916 | 107.96827 | 32114 ft | 458 kts | 92° |
| 2026-05-06 14:49 | 10.92878 | 108.00060 | 32349 ft | 459 kts | 92° |
| 2026-05-06 14:49 | 10.92840 | 108.03278 | 32563 ft | 460 kts | 91° |
| 2026-05-06 14:49 | 10.92896 | 108.06546 | 32769 ft | 463 kts | 89° |
| 2026-05-06 14:50 | 10.93120 | 108.09797 | 32840 ft | 465 kts | 85° |
| 2026-05-06 14:50 | 10.93906 | 108.16362 | 32852 ft | 466 kts | 84° |
| 2026-05-06 14:51 | 10.94728 | 108.22868 | 32888 ft | 466 kts | 84° |
| 2026-05-06 14:51 | 10.95533 | 108.29359 | 32918 ft | 458 kts | 83° |
| 2026-05-06 14:52 | 10.96331 | 108.35747 | 32930 ft | 455 kts | 83° |
| 2026-05-06 14:52 | 10.97126 | 108.42113 | 32933 ft | 455 kts | 83° |
| 2026-05-06 14:53 | 10.97915 | 108.48473 | 32934 ft | 455 kts | 83° |
| 2026-05-06 14:53 | 10.98705 | 108.54868 | 32934 ft | 455 kts | 83° |
| 2026-05-06 14:54 | 10.99486 | 108.61198 | 32934 ft | 455 kts | 83° |
| 2026-05-06 14:54 | 11.00274 | 108.67604 | 32934 ft | 455 kts | 83° |
| 2026-05-06 14:55 | 11.01057 | 108.73994 | 32934 ft | 455 kts | 83° |
| 2026-05-06 14:55 | 11.01851 | 108.80380 | 32931 ft | 462 kts | 84° |
| 2026-05-06 14:56 | 11.02636 | 108.86887 | 32934 ft | 467 kts | 84° |
| 2026-05-06 14:56 | 11.03429 | 108.93442 | 32934 ft | 467 kts | 84° |
| 2026-05-06 14:57 | 11.04225 | 108.99991 | 32934 ft | 467 kts | 84° |
| 2026-05-06 14:57 | 11.05023 | 109.06561 | 32934 ft | 467 kts | 84° |
| 2026-05-06 14:58 | 11.05817 | 109.13103 | 32934 ft | 467 kts | 84° |
| 2026-05-06 14:58 | 11.06609 | 109.19641 | 32934 ft | 467 kts | 84° |
| 2026-05-06 14:59 | 11.07397 | 109.26159 | 32933 ft | 467 kts | 84° |
| 2026-05-06 14:59 | 11.07781 | 109.29428 | 32933 ft | 455 kts | 83° |
| 2026-05-06 14:59 | 11.08161 | 109.32583 | 32934 ft | 451 kts | 83° |
| 2026-05-06 15:00 | 11.08935 | 109.38930 | 32934 ft | 452 kts | 83° |
| 2026-05-06 15:00 | 11.09698 | 109.45232 | 32934 ft | 452 kts | 83° |
| 2026-05-06 15:01 | 11.10477 | 109.51617 | 32934 ft | 454 kts | 82° |
| 2026-05-06 15:01 | 11.11284 | 109.57991 | 32934 ft | 454 kts | 82° |
| 2026-05-06 15:02 | 11.12116 | 109.64339 | 32934 ft | 454 kts | 82° |
| 2026-05-06 15:02 | 11.12937 | 109.70691 | 32934 ft | 454 kts | 82° |
| 2026-05-06 15:03 | 11.13754 | 109.77073 | 32932 ft | 455 kts | 82° |
| 2026-05-06 15:03 | 11.14570 | 109.83458 | 32934 ft | 456 kts | 82° |
| 2026-05-06 15:04 | 11.15388 | 109.89850 | 32934 ft | 456 kts | 82° |
| 2026-05-06 15:04 | 11.16199 | 109.96202 | 32934 ft | 456 kts | 82° |
| 2026-05-06 15:05 | 11.16878 | 110.01537 | 32934 ft | 456 kts | 82° |
| 2026-05-06 15:05 | 11.17825 | 110.08984 | 32934 ft | 456 kts | 82° |
| 2026-05-06 15:06 | 11.18635 | 110.15369 | 32934 ft | 456 kts | 82° |
| 2026-05-06 15:06 | 11.19447 | 110.21778 | 32934 ft | 456 kts | 82° |
| 2026-05-06 15:07 | 11.20256 | 110.28177 | 32933 ft | 455 kts | 82° |
| 2026-05-06 15:07 | 11.21059 | 110.34548 | 32934 ft | 455 kts | 82° |
| 2026-05-06 15:08 | 11.21862 | 110.40914 | 32934 ft | 455 kts | 82° |
| 2026-05-06 15:08 | 11.22660 | 110.47261 | 32934 ft | 455 kts | 82° |
| 2026-05-06 15:09 | 11.23463 | 110.53655 | 32934 ft | 455 kts | 82° |
| 2026-05-06 15:09 | 11.24259 | 110.60004 | 32934 ft | 455 kts | 82° |
| 2026-05-06 15:10 | 11.25062 | 110.66426 | 32935 ft | 455 kts | 82° |
| 2026-05-06 15:10 | 11.25857 | 110.72835 | 32934 ft | 459 kts | 82° |
| 2026-05-06 15:11 | 11.26657 | 110.79260 | 32930 ft | 458 kts | 83° |
| 2026-05-06 15:11 | 11.27475 | 110.85758 | 32934 ft | 470 kts | 83° |
| 2026-05-06 15:12 | 11.28285 | 110.92336 | 32934 ft | 471 kts | 83° |
| 2026-05-06 15:12 | 11.29101 | 110.98950 | 32934 ft | 471 kts | 83° |
| 2026-05-06 15:13 | 11.29916 | 111.05559 | 32934 ft | 471 kts | 83° |
| 2026-05-06 15:13 | 11.30725 | 111.12157 | 32934 ft | 471 kts | 84° |
| 2026-05-06 15:14 | 11.31492 | 111.18783 | 32934 ft | 471 kts | 84° |
| 2026-05-06 15:14 | 11.32243 | 111.25373 | 32934 ft | 471 kts | 84° |
| 2026-05-06 15:15 | 11.32977 | 111.31892 | 32934 ft | 458 kts | 83° |
| 2026-05-06 15:15 | 11.33717 | 111.38336 | 32934 ft | 459 kts | 83° |
| 2026-05-06 15:16 | 11.34455 | 111.44783 | 32934 ft | 459 kts | 83° |
| 2026-05-06 15:16 | 11.35187 | 111.51221 | 32934 ft | 459 kts | 83° |
| 2026-05-06 15:17 | 11.35922 | 111.57695 | 32934 ft | 459 kts | 83° |
| 2026-05-06 15:17 | 11.36647 | 111.64111 | 32934 ft | 459 kts | 83° |
| 2026-05-06 15:18 | 11.37376 | 111.70597 | 32934 ft | 459 kts | 83° |
| 2026-05-06 15:18 | 11.38096 | 111.77028 | 32936 ft | 459 kts | 83° |
| 2026-05-06 15:19 | 11.38819 | 111.83477 | 32934 ft | 457 kts | 83° |
| 2026-05-06 15:19 | 11.39542 | 111.89922 | 32934 ft | 457 kts | 83° |
| 2026-05-06 15:20 | 11.40258 | 111.96308 | 32934 ft | 457 kts | 83° |
| 2026-05-06 15:20 | 11.40978 | 112.02752 | 32934 ft | 457 kts | 83° |
| 2026-05-06 15:21 | 11.41696 | 112.09189 | 32934 ft | 457 kts | 83° |
| 2026-05-06 15:21 | 11.42409 | 112.15604 | 32934 ft | 457 kts | 83° |
| 2026-05-06 15:22 | 11.43124 | 112.22045 | 32934 ft | 457 kts | 83° |
| 2026-05-06 15:22 | 11.43832 | 112.28451 | 32934 ft | 458 kts | 82° |
| 2026-05-06 15:23 | 11.44543 | 112.34885 | 32934 ft | 459 kts | 82° |
| 2026-05-06 15:23 | 11.45255 | 112.41340 | 32934 ft | 459 kts | 82° |
| 2026-05-06 15:24 | 11.45964 | 112.47785 | 32934 ft | 459 kts | 82° |
| 2026-05-06 15:24 | 11.46672 | 112.54254 | 32934 ft | 459 kts | 82° |
| 2026-05-06 15:25 | 11.47386 | 112.60693 | 32934 ft | 459 kts | 82° |
| 2026-05-06 15:25 | 11.48150 | 112.67123 | 32934 ft | 459 kts | 82° |
| 2026-05-06 15:26 | 11.48912 | 112.73550 | 32934 ft | 459 kts | 82° |
| 2026-05-06 15:26 | 11.49672 | 112.80004 | 32933 ft | 460 kts | 82° |
| 2026-05-06 15:27 | 11.50432 | 112.86481 | 32934 ft | 461 kts | 82° |
| 2026-05-06 15:27 | 11.51191 | 112.92958 | 32934 ft | 461 kts | 82° |
| 2026-05-06 15:28 | 11.51945 | 112.99406 | 32934 ft | 461 kts | 82° |
| 2026-05-06 15:28 | 11.52701 | 113.05884 | 32934 ft | 461 kts | 82° |
| 2026-05-06 15:29 | 11.53453 | 113.12344 | 32934 ft | 461 kts | 82° |
| 2026-05-06 15:29 | 11.54205 | 113.18817 | 32934 ft | 461 kts | 82° |
| 2026-05-06 15:30 | 11.54958 | 113.25314 | 32934 ft | 461 kts | 82° |
| 2026-05-06 15:30 | 11.55708 | 113.31802 | 32933 ft | 463 kts | 82° |
| 2026-05-06 15:31 | 11.56459 | 113.38298 | 32934 ft | 464 kts | 82° |
| 2026-05-06 15:31 | 11.57213 | 113.44832 | 32934 ft | 464 kts | 82° |
| 2026-05-06 15:32 | 11.58338 | 113.54615 | 32934 ft | 464 kts | 82° |
| 2026-05-06 15:32 | 11.59086 | 113.61141 | 32934 ft | 464 kts | 82° |
| 2026-05-06 15:33 | 11.59827 | 113.67632 | 32934 ft | 464 kts | 82° |
| 2026-05-06 15:33 | 11.60570 | 113.74169 | 32934 ft | 464 kts | 82° |
| 2026-05-06 15:34 | 11.61313 | 113.80706 | 32934 ft | 466 kts | 82° |
| 2026-05-06 15:34 | 11.62059 | 113.87281 | 32934 ft | 466 kts | 82° |
| 2026-05-06 15:35 | 11.62700 | 113.92736 | 32934 ft | 466 kts | 80° |
| 2026-05-06 15:35 | 11.64217 | 114.00240 | 32934 ft | 465 kts | 73° |
| 2026-05-06 15:36 | 11.66268 | 114.06476 | 32934 ft | 463 kts | 66° |
| 2026-05-06 15:36 | 11.68798 | 114.12494 | 32934 ft | 463 kts | 65° |
| 2026-05-06 15:37 | 11.71369 | 114.18494 | 32928 ft | 463 kts | 65° |
| 2026-05-06 15:37 | 11.73938 | 114.24505 | 32914 ft | 463 kts | 65° |
| 2026-05-06 15:38 | 11.76507 | 114.30526 | 32907 ft | 465 kts | 65° |
| 2026-05-06 15:38 | 11.79090 | 114.36601 | 32907 ft | 466 kts | 65° |
| 2026-05-06 15:39 | 11.81650 | 114.42622 | 32907 ft | 466 kts | 65° |
| 2026-05-06 15:39 | 11.84235 | 114.48707 | 32907 ft | 466 kts | 65° |
| 2026-05-06 15:40 | 11.86790 | 114.54726 | 32907 ft | 466 kts | 65° |
| 2026-05-06 15:40 | 11.89371 | 114.60809 | 32907 ft | 466 kts | 65° |
| 2026-05-06 15:41 | 11.91945 | 114.66885 | 32907 ft | 466 kts | 65° |
| 2026-05-06 15:41 | 11.94488 | 114.72917 | 32908 ft | 466 kts | 65° |
| 2026-05-06 15:42 | 11.97055 | 114.78996 | 32907 ft | 468 kts | 66° |
| 2026-05-06 15:42 | 11.99638 | 114.85104 | 32907 ft | 469 kts | 66° |
| 2026-05-06 15:43 | 12.02202 | 114.91172 | 32908 ft | 469 kts | 66° |
| 2026-05-06 15:43 | 12.04798 | 114.97317 | 32908 ft | 469 kts | 66° |
| 2026-05-06 15:44 | 12.07370 | 115.03410 | 32908 ft | 469 kts | 66° |
| 2026-05-06 15:44 | 12.09944 | 115.09511 | 32908 ft | 469 kts | 66° |
| 2026-05-06 15:45 | 12.12544 | 115.15619 | 32908 ft | 469 kts | 65° |
| 2026-05-06 15:45 | 12.15140 | 115.21727 | 32908 ft | 469 kts | 65° |
| 2026-05-06 15:46 | 12.17718 | 115.27828 | 32908 ft | 469 kts | 66° |
| 2026-05-06 15:46 | 12.20289 | 115.33935 | 32908 ft | 468 kts | 66° |
| 2026-05-06 15:47 | 12.22839 | 115.40001 | 32908 ft | 468 kts | 66° |
| 2026-05-06 15:47 | 12.25395 | 115.46085 | 32907 ft | 468 kts | 65° |
| 2026-05-06 15:48 | 12.27959 | 115.52195 | 32907 ft | 469 kts | 65° |
| 2026-05-06 15:48 | 12.30533 | 115.58324 | 32907 ft | 471 kts | 66° |
| 2026-05-06 15:49 | 12.33104 | 115.64459 | 32908 ft | 471 kts | 66° |
| 2026-05-06 15:49 | 12.35672 | 115.70615 | 32907 ft | 471 kts | 66° |
| 2026-05-06 15:50 | 12.38234 | 115.76761 | 32907 ft | 471 kts | 66° |
| 2026-05-06 15:50 | 12.40792 | 115.82889 | 32908 ft | 470 kts | 66° |
| 2026-05-06 15:51 | 12.43353 | 115.89017 | 32908 ft | 470 kts | 66° |
| 2026-05-06 15:51 | 12.45917 | 115.95155 | 32908 ft | 470 kts | 66° |
| 2026-05-06 15:52 | 12.48476 | 116.01288 | 32907 ft | 470 kts | 66° |
| 2026-05-06 15:52 | 12.51043 | 116.07441 | 32907 ft | 470 kts | 66° |
| 2026-05-06 15:53 | 12.53607 | 116.13595 | 32907 ft | 470 kts | 66° |
| 2026-05-06 15:53 | 12.56157 | 116.19719 | 32907 ft | 470 kts | 66° |
| 2026-05-06 15:54 | 12.58709 | 116.25852 | 32908 ft | 470 kts | 66° |
| 2026-05-06 15:54 | 12.61257 | 116.31977 | 32907 ft | 469 kts | 66° |
| 2026-05-06 15:55 | 12.63808 | 116.38120 | 32907 ft | 469 kts | 66° |
| 2026-05-06 15:55 | 12.66354 | 116.44257 | 32907 ft | 469 kts | 66° |
| 2026-05-06 15:56 | 12.68901 | 116.50397 | 32907 ft | 469 kts | 66° |
| 2026-05-06 15:56 | 12.71436 | 116.56516 | 32907 ft | 469 kts | 66° |
| 2026-05-06 15:57 | 12.73977 | 116.62656 | 32907 ft | 469 kts | 66° |
| 2026-05-06 15:57 | 12.76511 | 116.68799 | 32907 ft | 470 kts | 66° |
| 2026-05-06 15:58 | 12.79057 | 116.74975 | 32907 ft | 470 kts | 66° |
| 2026-05-06 15:58 | 12.81587 | 116.81097 | 32908 ft | 469 kts | 66° |
| 2026-05-06 15:59 | 12.84132 | 116.87260 | 32908 ft | 469 kts | 66° |
| 2026-05-06 15:59 | 12.86661 | 116.93388 | 32908 ft | 469 kts | 66° |
| 2026-05-06 16:00 | 12.89198 | 116.99540 | 32908 ft | 469 kts | 66° |
| 2026-05-06 16:00 | 12.91731 | 117.05688 | 32908 ft | 469 kts | 66° |
| 2026-05-06 16:01 | 12.94247 | 117.11802 | 32907 ft | 469 kts | 66° |
| 2026-05-06 16:01 | 12.96772 | 117.17940 | 32914 ft | 469 kts | 66° |
| 2026-05-06 16:02 | 12.99298 | 117.24087 | 32927 ft | 469 kts | 66° |
| 2026-05-06 16:02 | 13.01828 | 117.30247 | 32932 ft | 470 kts | 66° |
| 2026-05-06 16:03 | 13.04355 | 117.36403 | 32934 ft | 470 kts | 66° |
| 2026-05-06 16:03 | 13.06883 | 117.42570 | 32934 ft | 470 kts | 66° |
| 2026-05-06 16:04 | 13.09413 | 117.48745 | 32934 ft | 470 kts | 66° |
| 2026-05-06 16:04 | 13.11952 | 117.54901 | 32934 ft | 470 kts | 66° |
| 2026-05-06 16:05 | 13.14479 | 117.61015 | 32934 ft | 470 kts | 66° |
| 2026-05-06 16:05 | 13.17007 | 117.67178 | 32934 ft | 470 kts | 66° |
| 2026-05-06 16:06 | 13.19531 | 117.73383 | 32934 ft | 470 kts | 66° |
| 2026-05-06 16:06 | 13.22034 | 117.79534 | 32934 ft | 469 kts | 66° |
| 2026-05-06 16:07 | 13.24538 | 117.85680 | 32934 ft | 469 kts | 66° |
| 2026-05-06 16:07 | 13.27051 | 117.91856 | 32933 ft | 470 kts | 66° |
| 2026-05-06 16:08 | 13.29571 | 117.98043 | 32934 ft | 470 kts | 66° |
| 2026-05-06 16:08 | 13.32071 | 118.04185 | 32934 ft | 470 kts | 66° |
| 2026-05-06 16:09 | 13.34584 | 118.10367 | 32934 ft | 470 kts | 66° |
| 2026-05-06 16:09 | 13.37101 | 118.16563 | 32934 ft | 470 kts | 66° |
| 2026-05-06 16:10 | 13.39612 | 118.22752 | 32934 ft | 470 kts | 66° |
| 2026-05-06 16:10 | 13.42106 | 118.28903 | 32934 ft | 470 kts | 66° |
| 2026-05-06 16:11 | 13.44611 | 118.35088 | 32934 ft | 470 kts | 66° |
| 2026-05-06 16:11 | 13.47110 | 118.41265 | 32934 ft | 470 kts | 66° |
| 2026-05-06 16:12 | 13.49617 | 118.47468 | 32934 ft | 470 kts | 66° |
| 2026-05-06 16:12 | 13.52112 | 118.53645 | 32934 ft | 470 kts | 66° |
| 2026-05-06 16:13 | 13.54610 | 118.59843 | 32934 ft | 470 kts | 66° |
| 2026-05-06 16:13 | 13.57104 | 118.66042 | 32932 ft | 470 kts | 67° |
| 2026-05-06 16:14 | 13.59204 | 118.72407 | 32933 ft | 470 kts | 73° |
| 2026-05-06 16:14 | 13.60639 | 118.78957 | 32934 ft | 470 kts | 78° |
| 2026-05-06 16:15 | 13.61877 | 118.85500 | 32934 ft | 470 kts | 79° |
| 2026-05-06 16:15 | 13.63122 | 118.92096 | 32934 ft | 470 kts | 79° |
| 2026-05-06 16:16 | 13.64170 | 118.97622 | 32934 ft | 470 kts | 78° |
| 2026-05-06 16:16 | 13.65225 | 119.03177 | 32934 ft | 470 kts | 78° |
| 2026-05-06 16:17 | 13.65852 | 119.06476 | 32708 ft | 470 kts | 78° |
| 2026-05-06 16:17 | 13.66471 | 119.09734 | 32460 ft | 466 kts | 78° |
| 2026-05-06 16:17 | 13.67092 | 119.13007 | 32208 ft | 463 kts | 78° |
| 2026-05-06 16:17 | 13.67708 | 119.16251 | 31958 ft | 460 kts | 78° |
| 2026-05-06 16:18 | 13.68316 | 119.19458 | 31709 ft | 458 kts | 78° |
| 2026-05-06 16:18 | 13.68921 | 119.22654 | 31461 ft | 458 kts | 78° |
| 2026-05-06 16:18 | 13.69533 | 119.25887 | 31210 ft | 459 kts | 78° |
| 2026-05-06 16:18 | 13.70140 | 119.29085 | 30961 ft | 461 kts | 79° |
| 2026-05-06 16:19 | 13.70750 | 119.32311 | 30651 ft | 461 kts | 79° |
| 2026-05-06 16:19 | 13.71358 | 119.35534 | 30225 ft | 462 kts | 79° |
| 2026-05-06 16:19 | 13.71967 | 119.38760 | 29604 ft | 463 kts | 78° |
| 2026-05-06 16:19 | 13.72577 | 119.42007 | 28907 ft | 464 kts | 78° |
| 2026-05-06 16:20 | 13.73190 | 119.45267 | 28188 ft | 466 kts | 78° |
| 2026-05-06 16:20 | 13.73804 | 119.48532 | 27462 ft | 467 kts | 78° |
| 2026-05-06 16:20 | 13.74421 | 119.51806 | 26727 ft | 467 kts | 78° |
| 2026-05-06 16:20 | 13.75038 | 119.55083 | 25970 ft | 468 kts | 78° |
| 2026-05-06 16:21 | 13.75657 | 119.58368 | 25177 ft | 469 kts | 78° |
| 2026-05-06 16:21 | 13.76268 | 119.61611 | 24433 ft | 468 kts | 78° |
| 2026-05-06 16:21 | 13.76885 | 119.64889 | 23942 ft | 461 kts | 78° |
| 2026-05-06 16:21 | 13.77484 | 119.68089 | 23414 ft | 455 kts | 79° |
| 2026-05-06 16:22 | 13.78078 | 119.71272 | 22874 ft | 450 kts | 79° |
| 2026-05-06 16:22 | 13.78663 | 119.74415 | 22336 ft | 446 kts | 79° |
| 2026-05-06 16:22 | 13.79236 | 119.77492 | 21806 ft | 441 kts | 79° |
| 2026-05-06 16:22 | 13.79816 | 119.80598 | 21266 ft | 437 kts | 79° |
| 2026-05-06 16:23 | 13.80380 | 119.83617 | 20738 ft | 433 kts | 79° |
| 2026-05-06 16:23 | 13.80946 | 119.86653 | 20201 ft | 430 kts | 79° |
| 2026-05-06 16:23 | 13.81508 | 119.89668 | 19668 ft | 426 kts | 79° |
| 2026-05-06 16:23 | 13.82060 | 119.92628 | 19140 ft | 422 kts | 79° |
| 2026-05-06 16:24 | 13.82610 | 119.95578 | 18614 ft | 419 kts | 79° |
| 2026-05-06 16:24 | 13.83154 | 119.98500 | 18089 ft | 416 kts | 79° |
| 2026-05-06 16:24 | 13.83695 | 120.01414 | 17565 ft | 412 kts | 79° |
| 2026-05-06 16:24 | 13.84225 | 120.04273 | 17047 ft | 409 kts | 79° |
| 2026-05-06 16:25 | 13.84801 | 120.07143 | 16510 ft | 406 kts | 74° |
| 2026-05-06 16:25 | 13.85996 | 120.09714 | 16065 ft | 402 kts | 54° |
| 2026-05-06 16:25 | 13.87985 | 120.11729 | 15945 ft | 403 kts | 35° |
| 2026-05-06 16:25 | 13.90464 | 120.13061 | 15950 ft | 404 kts | 25° |
| 2026-05-06 16:26 | 13.93030 | 120.14204 | 15940 ft | 404 kts | 24° |
| 2026-05-06 16:26 | 13.95613 | 120.15337 | 15937 ft | 403 kts | 24° |
| 2026-05-06 16:26 | 13.98170 | 120.16465 | 15936 ft | 403 kts | 24° |
| 2026-05-06 16:26 | 14.00748 | 120.17612 | 15816 ft | 403 kts | 24° |
| 2026-05-06 16:27 | 14.03316 | 120.18761 | 15436 ft | 399 kts | 24° |
| 2026-05-06 16:27 | 14.05825 | 120.19889 | 15063 ft | 397 kts | 25° |
| 2026-05-06 16:27 | 14.08346 | 120.21024 | 14687 ft | 395 kts | 25° |
| 2026-05-06 16:27 | 14.10847 | 120.22152 | 14312 ft | 392 kts | 25° |
| 2026-05-06 16:28 | 14.13348 | 120.23274 | 13892 ft | 390 kts | 24° |
| 2026-05-06 16:28 | 14.15811 | 120.24384 | 13442 ft | 387 kts | 26° |
| 2026-05-06 16:28 | 14.18005 | 120.25867 | 12962 ft | 380 kts | 46° |
| 2026-05-06 16:28 | 14.19488 | 120.28083 | 12518 ft | 372 kts | 66° |
| 2026-05-06 16:29 | 14.20358 | 120.30562 | 12081 ft | 366 kts | 72° |
| 2026-05-06 16:29 | 14.21124 | 120.33038 | 11631 ft | 361 kts | 73° |
| 2026-05-06 16:29 | 14.21891 | 120.35499 | 11178 ft | 356 kts | 72° |
| 2026-05-06 16:29 | 14.22636 | 120.37836 | 10727 ft | 337 kts | 72° |
| 2026-05-06 16:30 | 14.23361 | 120.40070 | 10271 ft | 320 kts | 72° |
| 2026-05-06 16:30 | 14.23821 | 120.41476 | 9972 ft | 309 kts | 72° |
| 2026-05-06 16:30 | 14.24718 | 120.44205 | 9372 ft | 291 kts | 72° |
| 2026-05-06 16:30 | 14.25353 | 120.46132 | 8920 ft | 281 kts | 72° |
| 2026-05-06 16:31 | 14.25978 | 120.48024 | 8470 ft | 278 kts | 72° |
| 2026-05-06 16:31 | 14.26604 | 120.49918 | 8017 ft | 277 kts | 72° |
| 2026-05-06 16:31 | 14.27227 | 120.51804 | 7568 ft | 279 kts | 72° |
| 2026-05-06 16:31 | 14.27853 | 120.53696 | 7120 ft | 281 kts | 72° |
| 2026-05-06 16:32 | 14.28490 | 120.55624 | 6666 ft | 282 kts | 72° |
| 2026-05-06 16:32 | 14.29131 | 120.57561 | 6212 ft | 284 kts | 72° |
| 2026-05-06 16:32 | 14.29764 | 120.59476 | 5765 ft | 285 kts | 72° |
| 2026-05-06 16:32 | 14.30404 | 120.61412 | 5314 ft | 285 kts | 72° |
| 2026-05-06 16:33 | 14.31038 | 120.63327 | 5030 ft | 279 kts | 72° |
| 2026-05-06 16:33 | 14.31653 | 120.65183 | 4995 ft | 265 kts | 73° |
| 2026-05-06 16:33 | 14.32241 | 120.66967 | 4964 ft | 262 kts | 73° |
| 2026-05-06 16:34 | 14.33641 | 120.70445 | 4245 ft | 264 kts | 64° |
| 2026-05-06 16:34 | 14.34492 | 120.72120 | 4047 ft | 256 kts | 65° |
| 2026-05-06 16:34 | 14.35288 | 120.73702 | 4020 ft | 243 kts | 64° |
| 2026-05-06 16:34 | 14.36060 | 120.75186 | 3992 ft | 232 kts | 64° |
| 2026-05-06 16:35 | 14.36848 | 120.76663 | 3884 ft | 235 kts | 62° |
| 2026-05-06 16:35 | 14.37634 | 120.78108 | 3738 ft | 228 kts | 61° |
| 2026-05-06 16:35 | 14.38397 | 120.79497 | 3629 ft | 218 kts | 60° |
| 2026-05-06 16:35 | 14.39127 | 120.80815 | 3474 ft | 207 kts | 60° |
| 2026-05-06 16:36 | 14.39841 | 120.82101 | 3095 ft | 206 kts | 60° |
| 2026-05-06 16:36 | 14.40534 | 120.83351 | 2997 ft | 190 kts | 60° |
| 2026-05-06 16:36 | 14.41151 | 120.84460 | 2996 ft | 169 kts | 60° |
| 2026-05-06 16:36 | 14.41703 | 120.85453 | 2967 ft | 153 kts | 60° |
| 2026-05-06 16:37 | 14.42238 | 120.86415 | 2990 ft | 153 kts | 60° |
| 2026-05-06 16:37 | 14.42763 | 120.87360 | 2842 ft | 153 kts | 60° |
| 2026-05-06 16:37 | 14.43293 | 120.88311 | 2649 ft | 152 kts | 60° |
| 2026-05-06 16:37 | 14.43815 | 120.89248 | 2449 ft | 151 kts | 60° |
| 2026-05-06 16:38 | 14.44340 | 120.90193 | 2247 ft | 151 kts | 60° |
| 2026-05-06 16:38 | 14.44865 | 120.91139 | 2046 ft | 150 kts | 60° |
| 2026-05-06 16:38 | 14.45380 | 120.92067 | 1847 ft | 150 kts | 60° |
| 2026-05-06 16:38 | 14.45903 | 120.93011 | 1644 ft | 149 kts | 61° |
| 2026-05-06 16:39 | 14.46417 | 120.93935 | 1445 ft | 149 kts | 62° |
| 2026-05-06 16:39 | 14.46932 | 120.94865 | 1247 ft | 148 kts | 62° |
| 2026-05-06 16:39 | 14.47440 | 120.95781 | 1051 ft | 148 kts | 62° |
| 2026-05-06 16:39 | 14.47955 | 120.96709 | 853 ft | 147 kts | 62° |
| 2026-05-06 16:40 | 14.48467 | 120.97626 | 661 ft | 147 kts | 61° |
| 2026-05-06 16:40 | 14.48977 | 120.98543 | 474 ft | 147 kts | 62° |
| 2026-05-06 16:40 | 14.49478 | 120.99449 | 266 ft | 146 kts | 63° |
| 2026-05-06 16:40 | 14.49987 | 121.00365 | 97 ft | 145 kts | 63° |
| 2026-05-06 16:41 | 14.50381 | 121.01094 | 84 ft | 77 kts | 61° |
| 2026-05-06 16:41 | 14.50555 | 121.01408 | 84 ft | 37 kts | 59° |
| 2026-05-06 16:41 | 14.50657 | 121.01585 | 84 ft | 19 kts | 58° |
| 2026-05-06 16:41 | 14.50742 | 121.01692 | 84 ft | 19 kts | 45° |
| 2026-05-06 16:42 | 14.50822 | 121.01763 | 84 ft | 7 kts | 38° |
| 2026-05-06 16:42 | 14.50875 | 121.01784 | 84 ft | 9 kts | 353° |
| 2026-05-06 16:42 | 14.50932 | 121.01743 | 84 ft | 11 kts | 316° |
| 2026-05-06 16:42 | 14.50991 | 121.01683 | 84 ft | 13 kts | 314° |
| 2026-05-06 16:43 | 14.51066 | 121.01606 | 84 ft | 17 kts | 315° |
| 2026-05-06 16:43 | 14.51155 | 121.01513 | 84 ft | 16 kts | 315° |
| 2026-05-06 16:43 | 14.51172 | 121.01497 | 84 ft | 0 kts | 315° |
| 2026-05-06 16:47 | 14.51172 | 121.01496 | 84 ft | 0 kts | 315° |
| 2026-05-06 16:48 | 14.51183 | 121.01485 | 84 ft | 4 kts | 316° |
| 2026-05-06 16:48 | 14.51216 | 121.01451 | 84 ft | 9 kts | 317° |
| 2026-05-06 16:48 | 14.51286 | 121.01440 | 84 ft | 10 kts | 34° |
| 2026-05-06 16:48 | 14.51345 | 121.01508 | 84 ft | 14 kts | 50° |
| 2026-05-06 16:49 | 14.51426 | 121.01587 | 84 ft | 16 kts | 34° |
| 2026-05-06 16:49 | 14.51511 | 121.01659 | 84 ft | 15 kts | 45° |
| 2026-05-06 16:49 | 14.51585 | 121.01737 | 84 ft | 14 kts | 44° |
| 2026-05-06 16:49 | 14.51654 | 121.01786 | 84 ft | 10 kts | 10° |
| 2026-05-06 16:50 | 14.51714 | 121.01756 | 84 ft | 10 kts | 317° |
| 2026-05-06 16:50 | 14.51764 | 121.01706 | 84 ft | 9 kts | 314° |
| 2026-05-06 16:50 | 14.51802 | 121.01666 | 84 ft | 4 kts | 311° |
| 2026-05-06 16:50 | 14.51809 | 121.01640 | 84 ft | 3 kts | 259° |
| 2026-05-06 16:51 | 14.51795 | 121.01623 | 84 ft | 2 kts | 212° |
| 2026-05-06 16:51 | 14.51771 | 121.01614 | 84 ft | 3 kts | 192° |
| 2026-05-06 16:51 | 14.51750 | 121.01608 | 84 ft | 1 kts | 197° |
| 2026-05-06 16:51 | 14.51739 | 121.01605 | 84 ft | 1 kts | 196° |
| 2026-05-06 16:52 | 14.51737 | 121.01605 | 84 ft | 0 kts | 196° |